sensor_id;sensor_type;location;lat;lon;timestamp;P1;durP1;ratioP1;P2;durP2;ratioP2
24147;SDS011;12309;51.450;-2.624;2023-08-20T00:01:23;14.70;;;2.70;;
24147;SDS011;12309;51.450;-2.624;2023-08-20T00:03:50;13.18;;;2.38;;
24147;SDS011;12309;51.450;-2.624;2023-08-20T00:06:17;12.77;;;2.38;;
24147;SDS011;12309;51.450;-2.624;2023-08-20T00:08:44;13.13;;;2.25;;
24147;SDS011;12309;51.450;-2.624;2023-08-20T00:11:10;16.92;;;2.60;;
24147;SDS011;12309;51.450;-2.624;2023-08-20T00:13:36;13.82;;;2.38;;
24147;SDS011;12309;51.450;-2.624;2023-08-20T00:16:02;12.05;;;2.25;;
24147;SDS011;12309;51.450;-2.624;2023-08-20T00:18:28;17.02;;;3.08;;
24147;SDS011;12309;51.450;-2.624;2023-08-20T00:20:54;11.73;;;2.42;;
24147;SDS011;12309;51.450;-2.624;2023-08-20T00:23:21;10.95;;;2.35;;
24147;SDS011;12309;51.450;-2.624;2023-08-20T00:25:46;12.63;;;2.47;;
24147;SDS011;12309;51.450;-2.624;2023-08-20T00:28:12;20.42;;;2.67;;
24147;SDS011;12309;51.450;-2.624;2023-08-20T00:30:38;20.38;;;2.75;;
24147;SDS011;12309;51.450;-2.624;2023-08-20T00:33:04;16.98;;;3.00;;
24147;SDS011;12309;51.450;-2.624;2023-08-20T00:35:30;9.57;;;2.22;;
24147;SDS011;12309;51.450;-2.624;2023-08-20T00:37:56;15.20;;;2.83;;
24147;SDS011;12309;51.450;-2.624;2023-08-20T00:40:22;12.38;;;2.53;;
24147;SDS011;12309;51.450;-2.624;2023-08-20T00:42:47;11.63;;;2.15;;
24147;SDS011;12309;51.450;-2.624;2023-08-20T00:45:14;12.23;;;2.50;;
24147;SDS011;12309;51.450;-2.624;2023-08-20T00:47:41;13.35;;;2.40;;
24147;SDS011;12309;51.450;-2.624;2023-08-20T00:50:07;11.52;;;2.40;;
24147;SDS011;12309;51.450;-2.624;2023-08-20T00:52:34;14.43;;;2.30;;
24147;SDS011;12309;51.450;-2.624;2023-08-20T00:55:02;16.33;;;2.70;;
24147;SDS011;12309;51.450;-2.624;2023-08-20T00:57:36;11.43;;;2.45;;
24147;SDS011;12309;51.450;-2.624;2023-08-20T01:00:03;13.05;;;2.10;;
24147;SDS011;12309;51.450;-2.624;2023-08-20T01:02:32;9.30;;;2.20;;
24147;SDS011;12309;51.450;-2.624;2023-08-20T01:04:59;13.80;;;2.75;;
24147;SDS011;12309;51.450;-2.624;2023-08-20T01:13:04;14.02;;;2.45;;
24147;SDS011;12309;51.450;-2.624;2023-08-20T01:15:32;12.70;;;2.42;;
24147;SDS011;12309;51.450;-2.624;2023-08-20T01:17:57;13.43;;;2.30;;
24147;SDS011;12309;51.450;-2.624;2023-08-20T01:20:25;15.65;;;2.20;;
24147;SDS011;12309;51.450;-2.624;2023-08-20T01:25:57;12.25;;;2.53;;
24147;SDS011;12309;51.450;-2.624;2023-08-20T01:28:45;10.13;;;2.60;;
24147;SDS011;12309;51.450;-2.624;2023-08-20T01:31:11;11.55;;;2.33;;
24147;SDS011;12309;51.450;-2.624;2023-08-20T01:33:37;12.98;;;2.10;;
24147;SDS011;12309;51.450;-2.624;2023-08-20T01:36:06;12.88;;;2.53;;
24147;SDS011;12309;51.450;-2.624;2023-08-20T01:38:34;12.27;;;1.88;;
24147;SDS011;12309;51.450;-2.624;2023-08-20T01:41:00;13.35;;;2.33;;
24147;SDS011;12309;51.450;-2.624;2023-08-20T01:43:26;11.38;;;1.98;;
24147;SDS011;12309;51.450;-2.624;2023-08-20T01:45:52;14.20;;;2.28;;
24147;SDS011;12309;51.450;-2.624;2023-08-20T01:48:18;13.50;;;2.30;;
24147;SDS011;12309;51.450;-2.624;2023-08-20T01:50:43;17.10;;;2.45;;
24147;SDS011;12309;51.450;-2.624;2023-08-20T01:53:11;10.15;;;1.80;;
24147;SDS011;12309;51.450;-2.624;2023-08-20T01:55:36;9.88;;;1.85;;
24147;SDS011;12309;51.450;-2.624;2023-08-20T01:58:02;8.50;;;1.75;;
24147;SDS011;12309;51.450;-2.624;2023-08-20T02:00:28;12.10;;;2.15;;
24147;SDS011;12309;51.450;-2.624;2023-08-20T02:02:55;12.77;;;2.00;;
24147;SDS011;12309;51.450;-2.624;2023-08-20T02:05:21;10.02;;;2.20;;
24147;SDS011;12309;51.450;-2.624;2023-08-20T02:07:47;13.02;;;2.35;;
24147;SDS011;12309;51.450;-2.624;2023-08-20T02:10:12;14.52;;;2.72;;
24147;SDS011;12309;51.450;-2.624;2023-08-20T02:12:39;7.72;;;1.80;;
24147;SDS011;12309;51.450;-2.624;2023-08-20T02:15:05;13.35;;;2.30;;
24147;SDS011;12309;51.450;-2.624;2023-08-20T02:17:32;14.57;;;2.65;;
24147;SDS011;12309;51.450;-2.624;2023-08-20T02:19:57;11.38;;;2.05;;
24147;SDS011;12309;51.450;-2.624;2023-08-20T02:22:23;9.25;;;2.25;;
24147;SDS011;12309;51.450;-2.624;2023-08-20T02:24:49;18.65;;;2.58;;
24147;SDS011;12309;51.450;-2.624;2023-08-20T02:27:14;12.63;;;2.60;;
24147;SDS011;12309;51.450;-2.624;2023-08-20T02:29:40;15.50;;;2.20;;
24147;SDS011;12309;51.450;-2.624;2023-08-20T02:32:06;12.32;;;2.65;;
24147;SDS011;12309;51.450;-2.624;2023-08-20T02:34:31;10.90;;;2.30;;
24147;SDS011;12309;51.450;-2.624;2023-08-20T02:36:57;15.73;;;2.42;;
24147;SDS011;12309;51.450;-2.624;2023-08-20T02:39:22;17.20;;;2.47;;
24147;SDS011;12309;51.450;-2.624;2023-08-20T02:41:49;9.60;;;2.45;;
24147;SDS011;12309;51.450;-2.624;2023-08-20T02:44:15;9.35;;;2.33;;
24147;SDS011;12309;51.450;-2.624;2023-08-20T02:46:41;7.63;;;1.85;;
24147;SDS011;12309;51.450;-2.624;2023-08-20T02:49:06;17.02;;;2.47;;
24147;SDS011;12309;51.450;-2.624;2023-08-20T02:51:32;10.93;;;2.30;;
24147;SDS011;12309;51.450;-2.624;2023-08-20T02:53:58;13.00;;;2.28;;
24147;SDS011;12309;51.450;-2.624;2023-08-20T02:56:23;12.85;;;2.38;;
24147;SDS011;12309;51.450;-2.624;2023-08-20T02:58:49;11.45;;;2.30;;
24147;SDS011;12309;51.450;-2.624;2023-08-20T03:01:18;10.10;;;2.40;;
24147;SDS011;12309;51.450;-2.624;2023-08-20T03:03:48;12.45;;;2.13;;
24147;SDS011;12309;51.450;-2.624;2023-08-20T03:06:14;13.07;;;2.28;;
24147;SDS011;12309;51.450;-2.624;2023-08-20T03:08:40;16.73;;;2.63;;
24147;SDS011;12309;51.450;-2.624;2023-08-20T03:11:05;14.20;;;2.30;;
24147;SDS011;12309;51.450;-2.624;2023-08-20T03:13:31;9.38;;;1.73;;
24147;SDS011;12309;51.450;-2.624;2023-08-20T03:15:56;10.90;;;2.17;;
24147;SDS011;12309;51.450;-2.624;2023-08-20T03:18:22;14.93;;;2.33;;
24147;SDS011;12309;51.450;-2.624;2023-08-20T03:20:47;10.38;;;2.17;;
24147;SDS011;12309;51.450;-2.624;2023-08-20T03:23:13;13.60;;;2.47;;
24147;SDS011;12309;51.450;-2.624;2023-08-20T03:25:39;13.57;;;2.70;;
24147;SDS011;12309;51.450;-2.624;2023-08-20T03:28:05;10.55;;;1.90;;
24147;SDS011;12309;51.450;-2.624;2023-08-20T03:30:30;13.85;;;2.60;;
24147;SDS011;12309;51.450;-2.624;2023-08-20T03:32:56;13.48;;;2.42;;
24147;SDS011;12309;51.450;-2.624;2023-08-20T03:35:22;15.73;;;2.42;;
24147;SDS011;12309;51.450;-2.624;2023-08-20T03:37:48;11.85;;;2.38;;
24147;SDS011;12309;51.450;-2.624;2023-08-20T03:40:13;12.50;;;2.65;;
24147;SDS011;12309;51.450;-2.624;2023-08-20T03:42:39;11.50;;;2.45;;
24147;SDS011;12309;51.450;-2.624;2023-08-20T03:45:05;11.32;;;2.03;;
24147;SDS011;12309;51.450;-2.624;2023-08-20T03:47:31;11.60;;;2.53;;
24147;SDS011;12309;51.450;-2.624;2023-08-20T03:49:57;13.32;;;2.53;;
24147;SDS011;12309;51.450;-2.624;2023-08-20T03:52:22;12.35;;;2.45;;
24147;SDS011;12309;51.450;-2.624;2023-08-20T03:54:48;8.38;;;2.25;;
24147;SDS011;12309;51.450;-2.624;2023-08-20T03:57:15;19.80;;;2.65;;
24147;SDS011;12309;51.450;-2.624;2023-08-20T03:59:41;18.58;;;2.60;;
24147;SDS011;12309;51.450;-2.624;2023-08-20T04:02:06;10.52;;;2.50;;
24147;SDS011;12309;51.450;-2.624;2023-08-20T04:04:32;11.73;;;2.58;;
24147;SDS011;12309;51.450;-2.624;2023-08-20T04:06:58;10.05;;;2.15;;
24147;SDS011;12309;51.450;-2.624;2023-08-20T04:09:23;9.65;;;2.30;;
24147;SDS011;12309;51.450;-2.624;2023-08-20T04:11:50;10.60;;;2.25;;
24147;SDS011;12309;51.450;-2.624;2023-08-20T04:14:16;12.48;;;3.03;;
24147;SDS011;12309;51.450;-2.624;2023-08-20T04:16:42;11.80;;;2.45;;
24147;SDS011;12309;51.450;-2.624;2023-08-20T04:19:08;12.43;;;2.60;;
24147;SDS011;12309;51.450;-2.624;2023-08-20T04:21:33;14.43;;;2.38;;
24147;SDS011;12309;51.450;-2.624;2023-08-20T04:23:59;10.00;;;1.95;;
24147;SDS011;12309;51.450;-2.624;2023-08-20T04:26:24;16.73;;;2.90;;
24147;SDS011;12309;51.450;-2.624;2023-08-20T04:28:50;13.60;;;2.88;;
24147;SDS011;12309;51.450;-2.624;2023-08-20T04:31:15;15.73;;;2.53;;
24147;SDS011;12309;51.450;-2.624;2023-08-20T04:33:41;11.52;;;2.55;;
24147;SDS011;12309;51.450;-2.624;2023-08-20T04:36:07;11.18;;;2.70;;
24147;SDS011;12309;51.450;-2.624;2023-08-20T04:38:33;12.63;;;2.80;;
24147;SDS011;12309;51.450;-2.624;2023-08-20T04:40:58;11.88;;;2.90;;
24147;SDS011;12309;51.450;-2.624;2023-08-20T04:43:24;8.75;;;2.03;;
24147;SDS011;12309;51.450;-2.624;2023-08-20T04:45:50;10.48;;;2.45;;
24147;SDS011;12309;51.450;-2.624;2023-08-20T04:48:15;13.57;;;2.42;;
24147;SDS011;12309;51.450;-2.624;2023-08-20T04:50:41;7.60;;;2.08;;
24147;SDS011;12309;51.450;-2.624;2023-08-20T04:53:06;12.77;;;2.58;;
24147;SDS011;12309;51.450;-2.624;2023-08-20T04:55:32;12.88;;;2.50;;
24147;SDS011;12309;51.450;-2.624;2023-08-20T04:57:57;10.88;;;2.15;;
24147;SDS011;12309;51.450;-2.624;2023-08-20T05:00:23;10.20;;;2.22;;
24147;SDS011;12309;51.450;-2.624;2023-08-20T05:02:49;13.30;;;2.65;;
24147;SDS011;12309;51.450;-2.624;2023-08-20T05:05:15;15.52;;;3.17;;
24147;SDS011;12309;51.450;-2.624;2023-08-20T05:07:40;23.02;;;2.97;;
24147;SDS011;12309;51.450;-2.624;2023-08-20T05:10:06;17.63;;;2.83;;
24147;SDS011;12309;51.450;-2.624;2023-08-20T05:12:33;11.77;;;2.38;;
24147;SDS011;12309;51.450;-2.624;2023-08-20T05:14:59;13.75;;;2.58;;
24147;SDS011;12309;51.450;-2.624;2023-08-20T05:17:25;15.13;;;2.70;;
24147;SDS011;12309;51.450;-2.624;2023-08-20T05:19:51;7.55;;;2.50;;
24147;SDS011;12309;51.450;-2.624;2023-08-20T05:22:16;10.45;;;2.67;;
24147;SDS011;12309;51.450;-2.624;2023-08-20T05:24:42;10.35;;;2.05;;
24147;SDS011;12309;51.450;-2.624;2023-08-20T05:27:08;9.10;;;2.35;;
24147;SDS011;12309;51.450;-2.624;2023-08-20T05:29:39;11.75;;;2.10;;
24147;SDS011;12309;51.450;-2.624;2023-08-20T05:32:05;8.85;;;2.00;;
24147;SDS011;12309;51.450;-2.624;2023-08-20T05:34:31;15.63;;;2.78;;
24147;SDS011;12309;51.450;-2.624;2023-08-20T05:36:57;10.50;;;2.75;;
24147;SDS011;12309;51.450;-2.624;2023-08-20T05:39:23;8.45;;;2.20;;
24147;SDS011;12309;51.450;-2.624;2023-08-20T05:41:50;8.27;;;2.80;;
24147;SDS011;12309;51.450;-2.624;2023-08-20T05:44:19;8.93;;;2.20;;
24147;SDS011;12309;51.450;-2.624;2023-08-20T05:46:45;12.90;;;2.40;;
24147;SDS011;12309;51.450;-2.624;2023-08-20T05:49:11;10.20;;;2.13;;
24147;SDS011;12309;51.450;-2.624;2023-08-20T05:51:37;11.02;;;2.83;;
24147;SDS011;12309;51.450;-2.624;2023-08-20T05:54:03;11.13;;;2.67;;
24147;SDS011;12309;51.450;-2.624;2023-08-20T05:56:29;7.82;;;2.38;;
24147;SDS011;12309;51.450;-2.624;2023-08-20T05:58:54;13.30;;;2.58;;
24147;SDS011;12309;51.450;-2.624;2023-08-20T06:01:21;18.20;;;2.70;;
24147;SDS011;12309;51.450;-2.624;2023-08-20T06:03:46;7.65;;;2.10;;
24147;SDS011;12309;51.450;-2.624;2023-08-20T06:06:12;12.90;;;2.58;;
24147;SDS011;12309;51.450;-2.624;2023-08-20T06:08:37;10.77;;;2.38;;
24147;SDS011;12309;51.450;-2.624;2023-08-20T06:11:03;10.65;;;2.47;;
24147;SDS011;12309;51.450;-2.624;2023-08-20T06:13:29;13.23;;;2.90;;
24147;SDS011;12309;51.450;-2.624;2023-08-20T06:15:54;12.50;;;2.58;;
24147;SDS011;12309;51.450;-2.624;2023-08-20T06:18:20;11.50;;;2.63;;
24147;SDS011;12309;51.450;-2.624;2023-08-20T06:20:45;12.07;;;2.55;;
24147;SDS011;12309;51.450;-2.624;2023-08-20T06:23:11;13.38;;;2.00;;
24147;SDS011;12309;51.450;-2.624;2023-08-20T06:25:38;16.13;;;2.50;;
24147;SDS011;12309;51.450;-2.624;2023-08-20T06:28:04;10.07;;;2.63;;
24147;SDS011;12309;51.450;-2.624;2023-08-20T06:30:29;10.98;;;2.40;;
24147;SDS011;12309;51.450;-2.624;2023-08-20T06:32:55;9.52;;;2.03;;
24147;SDS011;12309;51.450;-2.624;2023-08-20T06:35:21;10.63;;;1.88;;
24147;SDS011;12309;51.450;-2.624;2023-08-20T06:37:46;11.18;;;2.20;;
24147;SDS011;12309;51.450;-2.624;2023-08-20T06:40:12;11.32;;;2.22;;
24147;SDS011;12309;51.450;-2.624;2023-08-20T06:42:38;7.60;;;1.90;;
24147;SDS011;12309;51.450;-2.624;2023-08-20T06:45:04;9.80;;;2.30;;
24147;SDS011;12309;51.450;-2.624;2023-08-20T06:47:30;14.18;;;2.55;;
24147;SDS011;12309;51.450;-2.624;2023-08-20T06:49:56;10.35;;;2.42;;
24147;SDS011;12309;51.450;-2.624;2023-08-20T06:52:22;7.95;;;2.67;;
24147;SDS011;12309;51.450;-2.624;2023-08-20T06:54:47;7.32;;;1.98;;
24147;SDS011;12309;51.450;-2.624;2023-08-20T06:57:13;9.30;;;1.75;;
24147;SDS011;12309;51.450;-2.624;2023-08-20T06:59:38;5.97;;;1.80;;
24147;SDS011;12309;51.450;-2.624;2023-08-20T07:02:04;10.00;;;1.92;;
24147;SDS011;12309;51.450;-2.624;2023-08-20T07:04:30;10.18;;;1.83;;
24147;SDS011;12309;51.450;-2.624;2023-08-20T07:06:56;9.52;;;2.03;;
24147;SDS011;12309;51.450;-2.624;2023-08-20T07:09:21;6.10;;;1.98;;
24147;SDS011;12309;51.450;-2.624;2023-08-20T07:11:47;9.73;;;1.65;;
24147;SDS011;12309;51.450;-2.624;2023-08-20T07:14:13;8.93;;;1.77;;
24147;SDS011;12309;51.450;-2.624;2023-08-20T07:16:38;8.90;;;1.77;;
24147;SDS011;12309;51.450;-2.624;2023-08-20T07:19:04;4.85;;;1.60;;
24147;SDS011;12309;51.450;-2.624;2023-08-20T07:21:29;9.85;;;2.00;;
24147;SDS011;12309;51.450;-2.624;2023-08-20T07:23:55;11.52;;;2.20;;
24147;SDS011;12309;51.450;-2.624;2023-08-20T07:26:21;11.88;;;1.95;;
24147;SDS011;12309;51.450;-2.624;2023-08-20T07:28:47;10.43;;;2.08;;
24147;SDS011;12309;51.450;-2.624;2023-08-20T07:31:25;6.10;;;1.88;;
24147;SDS011;12309;51.450;-2.624;2023-08-20T07:33:52;9.55;;;2.25;;
24147;SDS011;12309;51.450;-2.624;2023-08-20T07:36:20;7.38;;;1.98;;
24147;SDS011;12309;51.450;-2.624;2023-08-20T07:38:49;10.00;;;1.70;;
24147;SDS011;12309;51.450;-2.624;2023-08-20T07:41:15;9.32;;;1.85;;
24147;SDS011;12309;51.450;-2.624;2023-08-20T07:43:41;8.05;;;1.83;;
24147;SDS011;12309;51.450;-2.624;2023-08-20T07:46:07;8.60;;;1.58;;
24147;SDS011;12309;51.450;-2.624;2023-08-20T07:48:34;7.47;;;1.80;;
24147;SDS011;12309;51.450;-2.624;2023-08-20T07:51:00;9.27;;;1.60;;
24147;SDS011;12309;51.450;-2.624;2023-08-20T07:53:26;8.68;;;1.73;;
24147;SDS011;12309;51.450;-2.624;2023-08-20T07:55:52;6.53;;;1.75;;
24147;SDS011;12309;51.450;-2.624;2023-08-20T07:58:18;12.63;;;2.00;;
24147;SDS011;12309;51.450;-2.624;2023-08-20T08:00:43;7.40;;;2.25;;
24147;SDS011;12309;51.450;-2.624;2023-08-20T08:03:09;9.00;;;1.80;;
24147;SDS011;12309;51.450;-2.624;2023-08-20T08:05:35;12.75;;;2.00;;
24147;SDS011;12309;51.450;-2.624;2023-08-20T08:08:01;7.25;;;1.50;;
24147;SDS011;12309;51.450;-2.624;2023-08-20T08:10:27;7.25;;;1.50;;
24147;SDS011;12309;51.450;-2.624;2023-08-20T08:12:53;9.52;;;1.50;;
24147;SDS011;12309;51.450;-2.624;2023-08-20T08:15:18;10.68;;;1.92;;
24147;SDS011;12309;51.450;-2.624;2023-08-20T08:17:44;8.18;;;1.48;;
24147;SDS011;12309;51.450;-2.624;2023-08-20T08:20:10;9.23;;;1.83;;
24147;SDS011;12309;51.450;-2.624;2023-08-20T08:22:36;6.47;;;1.40;;
24147;SDS011;12309;51.450;-2.624;2023-08-20T08:25:02;7.10;;;1.60;;
24147;SDS011;12309;51.450;-2.624;2023-08-20T08:27:28;4.75;;;1.30;;
24147;SDS011;12309;51.450;-2.624;2023-08-20T08:29:53;10.63;;;2.00;;
24147;SDS011;12309;51.450;-2.624;2023-08-20T08:32:19;8.27;;;1.55;;
24147;SDS011;12309;51.450;-2.624;2023-08-20T08:34:45;9.18;;;1.60;;
24147;SDS011;12309;51.450;-2.624;2023-08-20T08:37:11;10.60;;;1.63;;
24147;SDS011;12309;51.450;-2.624;2023-08-20T08:39:36;6.55;;;1.40;;
24147;SDS011;12309;51.450;-2.624;2023-08-20T08:42:02;9.00;;;1.42;;
24147;SDS011;12309;51.450;-2.624;2023-08-20T08:44:33;9.20;;;2.00;;
24147;SDS011;12309;51.450;-2.624;2023-08-20T08:46:59;6.43;;;1.42;;
24147;SDS011;12309;51.450;-2.624;2023-08-20T08:49:30;6.60;;;1.30;;
24147;SDS011;12309;51.450;-2.624;2023-08-20T08:51:58;7.28;;;1.70;;
24147;SDS011;12309;51.450;-2.624;2023-08-20T08:54:24;9.13;;;1.67;;
24147;SDS011;12309;51.450;-2.624;2023-08-20T08:56:51;7.05;;;1.60;;
24147;SDS011;12309;51.450;-2.624;2023-08-20T08:59:16;4.88;;;1.65;;
24147;SDS011;12309;51.450;-2.624;2023-08-20T09:01:43;9.73;;;1.65;;
24147;SDS011;12309;51.450;-2.624;2023-08-20T09:04:08;11.00;;;1.77;;
24147;SDS011;12309;51.450;-2.624;2023-08-20T09:06:47;8.98;;;2.08;;
24147;SDS011;12309;51.450;-2.624;2023-08-20T09:09:16;6.60;;;1.23;;
24147;SDS011;12309;51.450;-2.624;2023-08-20T09:11:42;8.30;;;1.55;;
24147;SDS011;12309;51.450;-2.624;2023-08-20T09:14:08;5.93;;;1.27;;
24147;SDS011;12309;51.450;-2.624;2023-08-20T09:16:59;8.18;;;1.52;;
24147;SDS011;12309;51.450;-2.624;2023-08-20T09:19:30;8.82;;;1.38;;
24147;SDS011;12309;51.450;-2.624;2023-08-20T09:22:00;7.18;;;1.20;;
24147;SDS011;12309;51.450;-2.624;2023-08-20T09:24:26;4.93;;;1.20;;
24147;SDS011;12309;51.450;-2.624;2023-08-20T09:26:58;5.47;;;1.38;;
24147;SDS011;12309;51.450;-2.624;2023-08-20T09:29:24;6.82;;;1.20;;
24147;SDS011;12309;51.450;-2.624;2023-08-20T09:31:50;8.25;;;1.50;;
24147;SDS011;12309;51.450;-2.624;2023-08-20T09:34:25;10.52;;;1.67;;
24147;SDS011;12309;51.450;-2.624;2023-08-20T09:36:51;7.95;;;1.27;;
24147;SDS011;12309;51.450;-2.624;2023-08-20T09:39:17;6.22;;;1.63;;
24147;SDS011;12309;51.450;-2.624;2023-08-20T09:41:42;6.55;;;1.20;;
24147;SDS011;12309;51.450;-2.624;2023-08-20T09:44:10;6.03;;;1.38;;
24147;SDS011;12309;51.450;-2.624;2023-08-20T09:46:37;8.93;;;1.60;;
24147;SDS011;12309;51.450;-2.624;2023-08-20T09:49:03;12.45;;;1.45;;
24147;SDS011;12309;51.450;-2.624;2023-08-20T09:51:32;8.60;;;1.50;;
24147;SDS011;12309;51.450;-2.624;2023-08-20T09:56:38;5.60;;;1.30;;
24147;SDS011;12309;51.450;-2.624;2023-08-20T09:59:04;4.88;;;1.27;;
24147;SDS011;12309;51.450;-2.624;2023-08-20T10:01:30;7.45;;;1.40;;
24147;SDS011;12309;51.450;-2.624;2023-08-20T10:03:56;6.53;;;1.38;;
24147;SDS011;12309;51.450;-2.624;2023-08-20T10:06:22;8.93;;;1.35;;
24147;SDS011;12309;51.450;-2.624;2023-08-20T10:08:48;5.53;;;1.02;;
24147;SDS011;12309;51.450;-2.624;2023-08-20T10:11:16;10.30;;;1.65;;
24147;SDS011;12309;51.450;-2.624;2023-08-20T10:13:42;3.97;;;0.82;;
24147;SDS011;12309;51.450;-2.624;2023-08-20T10:16:08;6.20;;;1.17;;
24147;SDS011;12309;51.450;-2.624;2023-08-20T10:18:36;7.90;;;1.42;;
24147;SDS011;12309;51.450;-2.624;2023-08-20T10:21:02;5.45;;;1.45;;
24147;SDS011;12309;51.450;-2.624;2023-08-20T10:23:30;5.10;;;1.38;;
24147;SDS011;12309;51.450;-2.624;2023-08-20T10:26:06;5.35;;;1.13;;
24147;SDS011;12309;51.450;-2.624;2023-08-20T10:28:34;7.78;;;1.15;;
24147;SDS011;12309;51.450;-2.624;2023-08-20T10:33:48;7.13;;;1.08;;
24147;SDS011;12309;51.450;-2.624;2023-08-20T10:36:16;6.88;;;0.90;;
24147;SDS011;12309;51.450;-2.624;2023-08-20T10:38:46;7.20;;;1.08;;
24147;SDS011;12309;51.450;-2.624;2023-08-20T10:41:12;5.95;;;1.40;;
24147;SDS011;12309;51.450;-2.624;2023-08-20T10:43:40;4.78;;;1.17;;
24147;SDS011;12309;51.450;-2.624;2023-08-20T10:46:18;4.55;;;1.10;;
24147;SDS011;12309;51.450;-2.624;2023-08-20T10:48:50;8.00;;;1.40;;
24147;SDS011;12309;51.450;-2.624;2023-08-20T10:51:38;4.97;;;1.13;;
24147;SDS011;12309;51.450;-2.624;2023-08-20T10:54:06;7.78;;;1.15;;
24147;SDS011;12309;51.450;-2.624;2023-08-20T10:56:38;4.88;;;0.90;;
24147;SDS011;12309;51.450;-2.624;2023-08-20T10:59:21;6.10;;;1.17;;
24147;SDS011;12309;51.450;-2.624;2023-08-20T11:01:55;4.50;;;1.38;;
24147;SDS011;12309;51.450;-2.624;2023-08-20T11:04:22;8.20;;;1.65;;
24147;SDS011;12309;51.450;-2.624;2023-08-20T11:06:53;8.85;;;1.58;;
24147;SDS011;12309;51.450;-2.624;2023-08-20T11:09:24;4.50;;;1.25;;
24147;SDS011;12309;51.450;-2.624;2023-08-20T11:11:54;5.97;;;1.10;;
24147;SDS011;12309;51.450;-2.624;2023-08-20T11:14:20;5.25;;;1.20;;
24147;SDS011;12309;51.450;-2.624;2023-08-20T11:16:47;3.97;;;0.90;;
24147;SDS011;12309;51.450;-2.624;2023-08-20T11:19:14;5.22;;;0.93;;
24147;SDS011;12309;51.450;-2.624;2023-08-20T11:21:43;5.47;;;0.90;;
24147;SDS011;12309;51.450;-2.624;2023-08-20T11:24:10;6.93;;;1.10;;
24147;SDS011;12309;51.450;-2.624;2023-08-20T11:26:38;4.93;;;1.00;;
24147;SDS011;12309;51.450;-2.624;2023-08-20T11:29:06;4.47;;;1.00;;
24147;SDS011;12309;51.450;-2.624;2023-08-20T11:31:32;5.10;;;1.17;;
24147;SDS011;12309;51.450;-2.624;2023-08-20T11:33:58;6.07;;;1.13;;
24147;SDS011;12309;51.450;-2.624;2023-08-20T11:36:23;7.35;;;1.23;;
24147;SDS011;12309;51.450;-2.624;2023-08-20T11:38:50;2.17;;;0.88;;
24147;SDS011;12309;51.450;-2.624;2023-08-20T11:41:22;3.83;;;1.10;;
24147;SDS011;12309;51.450;-2.624;2023-08-20T11:43:49;4.75;;;0.85;;
24147;SDS011;12309;51.450;-2.624;2023-08-20T11:46:15;5.28;;;1.08;;
24147;SDS011;12309;51.450;-2.624;2023-08-20T11:49:03;3.38;;;0.90;;
24147;SDS011;12309;51.450;-2.624;2023-08-20T11:51:44;4.18;;;0.90;;
24147;SDS011;12309;51.450;-2.624;2023-08-20T11:54:13;4.68;;;1.02;;
24147;SDS011;12309;51.450;-2.624;2023-08-20T11:56:50;4.38;;;1.05;;
24147;SDS011;12309;51.450;-2.624;2023-08-20T11:59:18;7.53;;;1.10;;
24147;SDS011;12309;51.450;-2.624;2023-08-20T12:01:57;11.30;;;1.17;;
24147;SDS011;12309;51.450;-2.624;2023-08-20T12:04:25;3.92;;;0.80;;
24147;SDS011;12309;51.450;-2.624;2023-08-20T12:09:33;2.92;;;0.80;;
24147;SDS011;12309;51.450;-2.624;2023-08-20T12:11:59;1.25;;;0.68;;
24147;SDS011;12309;51.450;-2.624;2023-08-20T12:14:25;7.03;;;1.20;;
24147;SDS011;12309;51.450;-2.624;2023-08-20T12:16:51;5.00;;;0.70;;
24147;SDS011;12309;51.450;-2.624;2023-08-20T12:19:18;9.10;;;1.15;;
24147;SDS011;12309;51.450;-2.624;2023-08-20T12:21:44;10.32;;;1.80;;
24147;SDS011;12309;51.450;-2.624;2023-08-20T12:24:10;4.18;;;1.23;;
24147;SDS011;12309;51.450;-2.624;2023-08-20T12:26:36;3.63;;;1.15;;
24147;SDS011;12309;51.450;-2.624;2023-08-20T12:29:03;3.42;;;1.30;;
24147;SDS011;12309;51.450;-2.624;2023-08-20T12:31:28;3.28;;;0.90;;
24147;SDS011;12309;51.450;-2.624;2023-08-20T12:33:54;5.35;;;1.13;;
24147;SDS011;12309;51.450;-2.624;2023-08-20T12:36:20;3.85;;;0.70;;
24147;SDS011;12309;51.450;-2.624;2023-08-20T12:38:45;2.10;;;0.80;;
24147;SDS011;12309;51.450;-2.624;2023-08-20T12:41:11;4.25;;;0.90;;
24147;SDS011;12309;51.450;-2.624;2023-08-20T12:43:37;2.58;;;0.70;;
24147;SDS011;12309;51.450;-2.624;2023-08-20T12:46:03;2.03;;;0.60;;
24147;SDS011;12309;51.450;-2.624;2023-08-20T12:48:28;3.88;;;0.70;;
24147;SDS011;12309;51.450;-2.624;2023-08-20T12:50:55;6.63;;;0.95;;
24147;SDS011;12309;51.450;-2.624;2023-08-20T12:53:20;1.38;;;0.70;;
24147;SDS011;12309;51.450;-2.624;2023-08-20T12:55:46;2.53;;;0.88;;
24147;SDS011;12309;51.450;-2.624;2023-08-20T12:58:12;4.47;;;0.70;;
24147;SDS011;12309;51.450;-2.624;2023-08-20T13:00:37;5.15;;;0.95;;
24147;SDS011;12309;51.450;-2.624;2023-08-20T13:03:04;3.65;;;0.80;;
24147;SDS011;12309;51.450;-2.624;2023-08-20T13:05:30;2.95;;;0.82;;
24147;SDS011;12309;51.450;-2.624;2023-08-20T13:07:56;2.35;;;0.70;;
24147;SDS011;12309;51.450;-2.624;2023-08-20T13:10:23;1.92;;;0.60;;
24147;SDS011;12309;51.450;-2.624;2023-08-20T13:12:49;2.53;;;0.80;;
24147;SDS011;12309;51.450;-2.624;2023-08-20T13:15:19;3.63;;;0.90;;
24147;SDS011;12309;51.450;-2.624;2023-08-20T13:17:47;4.90;;;0.90;;
24147;SDS011;12309;51.450;-2.624;2023-08-20T13:20:13;2.35;;;0.70;;
24147;SDS011;12309;51.450;-2.624;2023-08-20T13:22:40;2.70;;;0.80;;
24147;SDS011;12309;51.450;-2.624;2023-08-20T13:25:06;2.25;;;0.95;;
24147;SDS011;12309;51.450;-2.624;2023-08-20T13:27:32;1.92;;;0.60;;
24147;SDS011;12309;51.450;-2.624;2023-08-20T13:29:58;1.92;;;0.77;;
24147;SDS011;12309;51.450;-2.624;2023-08-20T13:32:24;2.60;;;0.57;;
24147;SDS011;12309;51.450;-2.624;2023-08-20T13:34:50;2.00;;;0.50;;
24147;SDS011;12309;51.450;-2.624;2023-08-20T13:37:15;1.70;;;0.75;;
24147;SDS011;12309;51.450;-2.624;2023-08-20T13:39:42;1.95;;;0.80;;
24147;SDS011;12309;51.450;-2.624;2023-08-20T13:42:07;3.55;;;0.77;;
24147;SDS011;12309;51.450;-2.624;2023-08-20T13:44:33;4.97;;;0.80;;
24147;SDS011;12309;51.450;-2.624;2023-08-20T13:46:59;2.65;;;0.70;;
24147;SDS011;12309;51.450;-2.624;2023-08-20T13:49:24;4.45;;;1.10;;
24147;SDS011;12309;51.450;-2.624;2023-08-20T13:51:50;2.60;;;0.95;;
24147;SDS011;12309;51.450;-2.624;2023-08-20T13:54:16;3.67;;;1.00;;
24147;SDS011;12309;51.450;-2.624;2023-08-20T13:56:42;4.15;;;0.95;;
24147;SDS011;12309;51.450;-2.624;2023-08-20T13:59:10;4.13;;;1.10;;
24147;SDS011;12309;51.450;-2.624;2023-08-20T14:01:36;2.95;;;0.95;;
24147;SDS011;12309;51.450;-2.624;2023-08-20T14:04:02;5.10;;;1.55;;
24147;SDS011;12309;51.450;-2.624;2023-08-20T14:06:28;6.15;;;1.48;;
24147;SDS011;12309;51.450;-2.624;2023-08-20T14:08:53;6.63;;;1.50;;
24147;SDS011;12309;51.450;-2.624;2023-08-20T14:11:19;6.55;;;1.30;;
24147;SDS011;12309;51.450;-2.624;2023-08-20T14:13:45;5.40;;;1.13;;
24147;SDS011;12309;51.450;-2.624;2023-08-20T14:16:11;5.85;;;1.50;;
24147;SDS011;12309;51.450;-2.624;2023-08-20T14:18:36;3.35;;;0.93;;
24147;SDS011;12309;51.450;-2.624;2023-08-20T14:21:02;5.07;;;1.25;;
24147;SDS011;12309;51.450;-2.624;2023-08-20T14:23:28;4.85;;;1.30;;
24147;SDS011;12309;51.450;-2.624;2023-08-20T14:25:54;6.75;;;1.27;;
24147;SDS011;12309;51.450;-2.624;2023-08-20T14:28:20;4.20;;;0.90;;
24147;SDS011;12309;51.450;-2.624;2023-08-20T14:30:47;3.92;;;1.15;;
24147;SDS011;12309;51.450;-2.624;2023-08-20T14:33:15;2.35;;;0.90;;
24147;SDS011;12309;51.450;-2.624;2023-08-20T14:35:40;3.13;;;1.10;;
24147;SDS011;12309;51.450;-2.624;2023-08-20T14:38:06;3.97;;;0.98;;
24147;SDS011;12309;51.450;-2.624;2023-08-20T14:40:35;3.63;;;1.10;;
24147;SDS011;12309;51.450;-2.624;2023-08-20T14:43:04;5.90;;;1.20;;